Burnham, Illinois
Current Conditions -  °F | °C
As of 6:45 PM on Monday 20 Oct 2014 (Local Time) from KGYY Reporting Station
Overcast Overcast  
Wind Chill: 55°   Ceiling: 1800
Heat Index: 55°   Visibility: 10mi
Dew Point: 48°   Wind: 12mph
Humidity: 77%   Direction: 360°N
Pressure: 29.96"   Gusts: NA
Location:  41.6563°N, 87.5444°W
Report Text: KGYY 202345Z 36010KT 10SM BKN018 OVC070 13/09 A2996
Loading
Personal Weather Stations






























Interactive Weather Map
Tropical Storm Tracking
New forecast layout! Learn more

10-Day Weather Forecast

Advertisements
Track Severe Weather on mobile